sensor_id;sensor_type;location;lat;lon;timestamp;pressure;altitude;pressure_sealevel;temperature;humidity
64078;BME280;51039;49.696;10.808;2023-09-18T00:00:13;97924.00;;;18.14;100.00
64078;BME280;51039;49.696;10.808;2023-09-18T00:02:39;97925.34;;;18.17;100.00
64078;BME280;51039;49.696;10.808;2023-09-18T00:05:04;97924.78;;;18.15;100.00
64078;BME280;51039;49.696;10.808;2023-09-18T00:07:30;97922.91;;;18.10;100.00
64078;BME280;51039;49.696;10.808;2023-09-18T00:09:55;97926.94;;;18.08;100.00
64078;BME280;51039;49.696;10.808;2023-09-18T00:12:21;97925.28;;;18.07;100.00
64078;BME280;51039;49.696;10.808;2023-09-18T00:14:49;97912.16;;;18.00;100.00
64078;BME280;51039;49.696;10.808;2023-09-18T00:17:15;97916.66;;;17.89;100.00
64078;BME280;51039;49.696;10.808;2023-09-18T00:19:44;97919.81;;;17.81;100.00
64078;BME280;51039;49.696;10.808;2023-09-18T00:22:10;97914.94;;;17.73;100.00
64078;BME280;51039;49.696;10.808;2023-09-18T00:24:35;97911.69;;;17.65;100.00
64078;BME280;51039;49.696;10.808;2023-09-18T00:27:00;97909.22;;;17.59;100.00
64078;BME280;51039;49.696;10.808;2023-09-18T00:29:26;97893.69;;;17.56;100.00
64078;BME280;51039;49.696;10.808;2023-09-18T00:31:51;97891.22;;;17.49;100.00
64078;BME280;51039;49.696;10.808;2023-09-18T00:34:17;97884.78;;;17.45;100.00
64078;BME280;51039;49.696;10.808;2023-09-18T00:36:42;97881.31;;;17.44;100.00
64078;BME280;51039;49.696;10.808;2023-09-18T00:39:07;97879.13;;;17.41;100.00
64078;BME280;51039;49.696;10.808;2023-09-18T00:41:33;97872.69;;;17.37;100.00
64078;BME280;51039;49.696;10.808;2023-09-18T00:43:58;97867.31;;;17.32;100.00
64078;BME280;51039;49.696;10.808;2023-09-18T00:46:23;97867.78;;;17.24;100.00
64078;BME280;51039;49.696;10.808;2023-09-18T00:48:49;97870.69;;;17.17;100.00
64078;BME280;51039;49.696;10.808;2023-09-18T00:51:15;97868.28;;;17.16;100.00
64078;BME280;51039;49.696;10.808;2023-09-18T00:53:45;97861.28;;;17.10;100.00
64078;BME280;51039;49.696;10.808;2023-09-18T00:56:13;97859.09;;;17.06;100.00
64078;BME280;51039;49.696;10.808;2023-09-18T00:58:39;97860.75;;;17.13;100.00
64078;BME280;51039;49.696;10.808;2023-09-18T01:01:04;97863.38;;;17.02;100.00
64078;BME280;51039;49.696;10.808;2023-09-18T01:03:29;97854.25;;;16.98;100.00
64078;BME280;51039;49.696;10.808;2023-09-18T01:05:55;97853.75;;;17.01;100.00
64078;BME280;51039;49.696;10.808;2023-09-18T01:08:20;97859.59;;;16.98;100.00
64078;BME280;51039;49.696;10.808;2023-09-18T01:10:48;97845.38;;;16.93;100.00
64078;BME280;51039;49.696;10.808;2023-09-18T01:13:23;97852.84;;;16.91;100.00
64078;BME280;51039;49.696;10.808;2023-09-18T01:15:56;97849.63;;;16.88;100.00
64078;BME280;51039;49.696;10.808;2023-09-18T01:18:25;97845.38;;;16.93;100.00
64078;BME280;51039;49.696;10.808;2023-09-18T01:20:50;97846.41;;;16.92;100.00
64078;BME280;51039;49.696;10.808;2023-09-18T01:23:16;97843.50;;;16.93;100.00
64078;BME280;51039;49.696;10.808;2023-09-18T01:25:41;97841.34;;;16.90;100.00
64078;BME280;51039;49.696;10.808;2023-09-18T01:28:06;97844.56;;;16.92;100.00
64078;BME280;51039;49.696;10.808;2023-09-18T01:30:32;97839.41;;;16.85;100.00
64078;BME280;51039;49.696;10.808;2023-09-18T01:32:59;97836.75;;;16.85;100.00
64078;BME280;51039;49.696;10.808;2023-09-18T01:35:27;97829.81;;;16.84;100.00
64078;BME280;51039;49.696;10.808;2023-09-18T01:37:57;97829.81;;;16.84;100.00
64078;BME280;51039;49.696;10.808;2023-09-18T01:40:24;97829.28;;;16.87;100.00
64078;BME280;51039;49.696;10.808;2023-09-18T01:42:51;97823.16;;;16.92;100.00
64078;BME280;51039;49.696;10.808;2023-09-18T01:45:17;97818.31;;;16.89;100.00
64078;BME280;51039;49.696;10.808;2023-09-18T01:47:42;97821.53;;;16.91;100.00
64078;BME280;51039;49.696;10.808;2023-09-18T01:50:08;97822.81;;;16.83;100.00
64078;BME280;51039;49.696;10.808;2023-09-18T01:52:34;97825.00;;;16.86;100.00
64078;BME280;51039;49.696;10.808;2023-09-18T01:55:02;97824.44;;;16.84;100.00
64078;BME280;51039;49.696;10.808;2023-09-18T01:57:31;97833.19;;;16.80;100.00
64078;BME280;51039;49.696;10.808;2023-09-18T01:59:56;97825.69;;;16.77;100.00
64078;BME280;51039;49.696;10.808;2023-09-18T02:02:21;97819.81;;;16.75;100.00
64078;BME280;51039;49.696;10.808;2023-09-18T02:04:47;97813.63;;;16.74;100.00
64078;BME280;51039;49.696;10.808;2023-09-18T02:07:12;97812.28;;;16.72;100.00
64078;BME280;51039;49.696;10.808;2023-09-18T02:09:38;97817.94;;;16.75;100.00
64078;BME280;51039;49.696;10.808;2023-09-18T02:12:03;97812.56;;;16.75;100.00
64078;BME280;51039;49.696;10.808;2023-09-18T02:14:29;97813.13;;;16.77;100.00
64078;BME280;51039;49.696;10.808;2023-09-18T02:16:56;97814.22;;;16.81;100.00
64078;BME280;51039;49.696;10.808;2023-09-18T02:19:21;97820.16;;;16.83;100.00
64078;BME280;51039;49.696;10.808;2023-09-18T02:21:46;97819.13;;;16.90;100.00
64078;BME280;51039;49.696;10.808;2023-09-18T02:24:12;97805.75;;;16.90;100.00
64078;BME280;51039;49.696;10.808;2023-09-18T02:26:37;97806.28;;;16.86;100.00
64078;BME280;51039;49.696;10.808;2023-09-18T02:29:05;97799.00;;;16.82;100.00
64078;BME280;51039;49.696;10.808;2023-09-18T02:31:31;97800.84;;;16.81;100.00
64078;BME280;51039;49.696;10.808;2023-09-18T02:33:56;97797.31;;;16.76;100.00
64078;BME280;51039;49.696;10.808;2023-09-18T02:36:22;97791.19;;;16.75;100.00
64078;BME280;51039;49.696;10.808;2023-09-18T02:38:47;97790.94;;;16.77;100.00
64078;BME280;51039;49.696;10.808;2023-09-18T02:41:12;97783.97;;;16.76;100.00
64078;BME280;51039;49.696;10.808;2023-09-18T02:43:38;97791.69;;;16.72;100.00
64078;BME280;51039;49.696;10.808;2023-09-18T02:46:03;97783.94;;;16.71;100.00
64078;BME280;51039;49.696;10.808;2023-09-18T02:48:30;97782.81;;;16.66;100.00
64078;BME280;51039;49.696;10.808;2023-09-18T02:50:56;97790.28;;;16.64;100.00
64078;BME280;51039;49.696;10.808;2023-09-18T02:53:22;97782.78;;;16.61;100.00
64078;BME280;51039;49.696;10.808;2023-09-18T02:55:49;97776.31;;;16.52;100.00
64078;BME280;51039;49.696;10.808;2023-09-18T02:58:16;97776.00;;;16.48;100.00
64078;BME280;51039;49.696;10.808;2023-09-18T03:00:44;97781.28;;;16.43;100.00
64078;BME280;51039;49.696;10.808;2023-09-18T03:03:12;97771.94;;;16.41;100.00
64078;BME280;51039;49.696;10.808;2023-09-18T03:05:38;97763.38;;;16.39;100.00
64078;BME280;51039;49.696;10.808;2023-09-18T03:08:03;97750.28;;;16.42;100.00
64078;BME280;51039;49.696;10.808;2023-09-18T03:10:33;97745.53;;;16.49;100.00
64078;BME280;51039;49.696;10.808;2023-09-18T03:12:59;97737.53;;;16.55;100.00
64078;BME280;51039;49.696;10.808;2023-09-18T03:15:25;97741.59;;;16.57;100.00
64078;BME280;51039;49.696;10.808;2023-09-18T03:17:50;97739.72;;;16.58;100.00
64078;BME280;51039;49.696;10.808;2023-09-18T03:20:16;97731.94;;;16.56;100.00
64078;BME280;51039;49.696;10.808;2023-09-18T03:22:41;97729.56;;;16.60;100.00
64078;BME280;51039;49.696;10.808;2023-09-18T03:25:06;97732.28;;;16.65;100.00
64078;BME280;51039;49.696;10.808;2023-09-18T03:27:32;97742.69;;;16.61;100.00
64078;BME280;51039;49.696;10.808;2023-09-18T03:29:57;97739.72;;;16.58;100.00
64078;BME280;51039;49.696;10.808;2023-09-18T03:32:23;97740.00;;;16.61;100.00
64078;BME280;51039;49.696;10.808;2023-09-18T03:34:51;97745.63;;;16.60;100.00
64078;BME280;51039;49.696;10.808;2023-09-18T03:37:16;97734.72;;;16.72;100.00
64078;BME280;51039;49.696;10.808;2023-09-18T03:39:42;97733.69;;;16.73;100.00
64078;BME280;51039;49.696;10.808;2023-09-18T03:42:07;97728.31;;;16.73;100.00
64078;BME280;51039;49.696;10.808;2023-09-18T03:44:32;97717.63;;;16.73;100.00
64078;BME280;51039;49.696;10.808;2023-09-18T03:46:58;97710.91;;;16.65;100.00
64078;BME280;51039;49.696;10.808;2023-09-18T03:49:23;97715.13;;;16.61;100.00
64078;BME280;51039;49.696;10.808;2023-09-18T03:51:48;97709.22;;;16.54;100.00
64078;BME280;51039;49.696;10.808;2023-09-18T03:54:14;97711.06;;;16.53;100.00
64078;BME280;51039;49.696;10.808;2023-09-18T03:56:40;97706.00;;;16.52;100.00
64078;BME280;51039;49.696;10.808;2023-09-18T03:59:05;97706.50;;;16.48;100.00
64078;BME280;51039;49.696;10.808;2023-09-18T04:01:31;97708.88;;;16.45;100.00
64078;BME280;51039;49.696;10.808;2023-09-18T04:03:56;97711.53;;;16.45;100.00
64078;BME280;51039;49.696;10.808;2023-09-18T04:06:22;97711.78;;;16.43;100.00
64078;BME280;51039;49.696;10.808;2023-09-18T04:08:49;97729.50;;;16.49;100.00
64078;BME280;51039;49.696;10.808;2023-09-18T04:11:15;97751.41;;;16.46;100.00
64078;BME280;51039;49.696;10.808;2023-09-18T04:13:41;97796.34;;;16.49;100.00
64078;BME280;51039;49.696;10.808;2023-09-18T04:16:06;97773.06;;;16.50;100.00
64078;BME280;51039;49.696;10.808;2023-09-18T04:18:32;97758.94;;;16.55;100.00
64078;BME280;51039;49.696;10.808;2023-09-18T04:20:58;97772.91;;;16.62;100.00
64078;BME280;51039;49.696;10.808;2023-09-18T04:23:26;97751.25;;;16.63;100.00
64078;BME280;51039;49.696;10.808;2023-09-18T04:25:52;97736.84;;;16.69;100.00
64078;BME280;51039;49.696;10.808;2023-09-18T04:28:19;97728.59;;;16.76;100.00
64078;BME280;51039;49.696;10.808;2023-09-18T04:30:46;97711.78;;;16.81;100.00
64078;BME280;51039;49.696;10.808;2023-09-18T04:33:15;97702.47;;;16.83;100.00
64078;BME280;51039;49.696;10.808;2023-09-18T04:35:41;97696.91;;;16.90;100.00
64078;BME280;51039;49.696;10.808;2023-09-18T04:38:08;97684.28;;;16.85;100.00
64078;BME280;51039;49.696;10.808;2023-09-18T04:40:34;97688.56;;;16.86;100.00
64078;BME280;51039;49.696;10.808;2023-09-18T04:42:59;97700.88;;;16.87;100.00
64078;BME280;51039;49.696;10.808;2023-09-18T04:45:25;97700.63;;;16.89;100.00
64078;BME280;51039;49.696;10.808;2023-09-18T04:47:51;97710.53;;;16.88;100.00
64078;BME280;51039;49.696;10.808;2023-09-18T04:50:17;97709.44;;;16.84;100.00
64078;BME280;51039;49.696;10.808;2023-09-18T04:52:42;97709.69;;;16.83;100.00
64078;BME280;51039;49.696;10.808;2023-09-18T04:55:08;97723.28;;;16.81;100.00
64078;BME280;51039;49.696;10.808;2023-09-18T04:57:34;97716.84;;;16.77;100.00
64078;BME280;51039;49.696;10.808;2023-09-18T05:00:00;97715.78;;;16.78;100.00
64078;BME280;51039;49.696;10.808;2023-09-18T05:02:26;97715.78;;;16.78;100.00
64078;BME280;51039;49.696;10.808;2023-09-18T05:04:51;97726.81;;;16.87;100.00
64078;BME280;51039;49.696;10.808;2023-09-18T05:07:17;97730.38;;;16.98;100.00
64078;BME280;51039;49.696;10.808;2023-09-18T05:09:42;97726.91;;;17.02;100.00
64078;BME280;51039;49.696;10.808;2023-09-18T05:12:08;97726.13;;;17.07;100.00
64078;BME280;51039;49.696;10.808;2023-09-18T05:14:38;97742.75;;;17.09;100.00
64078;BME280;51039;49.696;10.808;2023-09-18T05:17:09;97749.66;;;17.00;100.00
64078;BME280;51039;49.696;10.808;2023-09-18T05:19:37;97740.59;;;17.11;100.00
64078;BME280;51039;49.696;10.808;2023-09-18T05:22:02;97758.59;;;17.21;100.00
64078;BME280;51039;49.696;10.808;2023-09-18T05:24:27;97762.38;;;17.35;100.00
64078;BME280;51039;49.696;10.808;2023-09-18T05:26:54;97763.22;;;17.41;100.00
64078;BME280;51039;49.696;10.808;2023-09-18T05:29:19;97770.72;;;17.49;100.00
64078;BME280;51039;49.696;10.808;2023-09-18T05:31:45;97784.41;;;17.53;100.00
64078;BME280;51039;49.696;10.808;2023-09-18T05:34:11;97798.59;;;17.48;100.00
64078;BME280;51039;49.696;10.808;2023-09-18T05:36:37;97813.56;;;17.44;100.00
64078;BME280;51039;49.696;10.808;2023-09-18T05:39:02;97805.53;;;17.44;100.00
64078;BME280;51039;49.696;10.808;2023-09-18T05:41:28;97804.22;;;17.52;100.00
64078;BME280;51039;49.696;10.808;2023-09-18T05:43:54;97789.53;;;17.59;100.00
64078;BME280;51039;49.696;10.808;2023-09-18T05:46:20;97776.44;;;17.68;100.00
64078;BME280;51039;49.696;10.808;2023-09-18T05:48:45;97781.56;;;17.80;100.00
64078;BME280;51039;49.696;10.808;2023-09-18T05:51:10;97784.31;;;17.90;100.00
64078;BME280;51039;49.696;10.808;2023-09-18T05:53:35;97781.38;;;18.02;100.00
64078;BME280;51039;49.696;10.808;2023-09-18T05:56:02;97772.03;;;18.20;100.00
64078;BME280;51039;49.696;10.808;2023-09-18T05:58:29;97781.16;;;18.39;100.00
64078;BME280;51039;49.696;10.808;2023-09-18T06:00:57;97783.84;;;18.55;100.00
64078;BME280;51039;49.696;10.808;2023-09-18T06:03:23;97778.47;;;18.65;100.00
64078;BME280;51039;49.696;10.808;2023-09-18T06:05:48;97765.59;;;18.77;100.00
64078;BME280;51039;49.696;10.808;2023-09-18T06:08:13;97782.25;;;18.85;100.00
64078;BME280;51039;49.696;10.808;2023-09-18T06:10:39;97779.28;;;18.96;100.00
64078;BME280;51039;49.696;10.808;2023-09-18T06:13:04;97771.47;;;18.95;100.00
64078;BME280;51039;49.696;10.808;2023-09-18T06:15:31;97769.59;;;18.95;100.00
64078;BME280;51039;49.696;10.808;2023-09-18T06:17:56;97756.72;;;18.97;100.00
64078;BME280;51039;49.696;10.808;2023-09-18T06:20:22;97759.13;;;19.04;100.00
64078;BME280;51039;49.696;10.808;2023-09-18T06:22:47;97753.75;;;18.99;100.00
64078;BME280;51039;49.696;10.808;2023-09-18T06:25:12;97756.72;;;18.72;100.00
64078;BME280;51039;49.696;10.808;2023-09-18T06:27:39;97749.53;;;18.52;100.00
64078;BME280;51039;49.696;10.808;2023-09-18T06:30:05;97738.25;;;18.29;100.00
64078;BME280;51039;49.696;10.808;2023-09-18T06:32:31;97727.53;;;18.19;100.00
64078;BME280;51039;49.696;10.808;2023-09-18T06:34:57;97715.47;;;18.21;100.00
64078;BME280;51039;49.696;10.808;2023-09-18T06:37:23;97718.94;;;18.27;100.00
64078;BME280;51039;49.696;10.808;2023-09-18T06:39:49;97720.53;;;18.28;100.00
64078;BME280;51039;49.696;10.808;2023-09-18T06:42:14;97712.53;;;18.38;100.00
64078;BME280;51039;49.696;10.808;2023-09-18T06:44:39;97706.06;;;18.55;100.00
64078;BME280;51039;49.696;10.808;2023-09-18T06:47:04;97716.75;;;18.70;100.00
64078;BME280;51039;49.696;10.808;2023-09-18T06:49:30;97717.28;;;18.93;100.00
64078;BME280;51039;49.696;10.808;2023-09-18T06:51:56;97716.97;;;18.99;100.00
64078;BME280;51039;49.696;10.808;2023-09-18T06:54:21;97704.38;;;18.95;100.00
64078;BME280;51039;49.696;10.808;2023-09-18T06:56:46;97698.50;;;18.88;100.00
64078;BME280;51039;49.696;10.808;2023-09-18T06:59:12;97702.53;;;18.85;100.00
64078;BME280;51039;49.696;10.808;2023-09-18T07:01:37;97708.19;;;18.78;100.00
64078;BME280;51039;49.696;10.808;2023-09-18T07:04:03;97716.50;;;18.87;100.00
64078;BME280;51039;49.696;10.808;2023-09-18T07:06:29;97721.03;;;18.97;100.00
64078;BME280;51039;49.696;10.808;2023-09-18T07:08:55;97720.50;;;18.90;100.00
64078;BME280;51039;49.696;10.808;2023-09-18T07:11:20;97728.06;;;18.82;100.00
64078;BME280;51039;49.696;10.808;2023-09-18T07:13:45;97732.06;;;18.85;100.00
64078;BME280;51039;49.696;10.808;2023-09-18T07:16:11;97730.97;;;18.91;100.00
64078;BME280;51039;49.696;10.808;2023-09-18T07:18:36;97729.56;;;19.19;100.00
64078;BME280;51039;49.696;10.808;2023-09-18T07:21:02;97720.06;;;19.42;100.00
64078;BME280;51039;49.696;10.808;2023-09-18T07:23:27;97708.97;;;19.59;100.00
64078;BME280;51039;49.696;10.808;2023-09-18T07:25:53;97716.63;;;19.87;100.00
64078;BME280;51039;49.696;10.808;2023-09-18T07:28:18;97726.03;;;20.24;100.00
64078;BME280;51039;49.696;10.808;2023-09-18T07:30:45;97734.22;;;20.43;98.07
64078;BME280;51039;49.696;10.808;2023-09-18T07:33:11;97729.19;;;20.94;95.73
64078;BME280;51039;49.696;10.808;2023-09-18T07:35:37;97731.44;;;21.11;94.38
64078;BME280;51039;49.696;10.808;2023-09-18T07:38:03;97741.28;;;21.45;92.41
64078;BME280;51039;49.696;10.808;2023-09-18T07:40:29;97735.63;;;21.42;91.78
64078;BME280;51039;49.696;10.808;2023-09-18T07:42:54;97728.69;;;21.35;90.25
64078;BME280;51039;49.696;10.808;2023-09-18T07:45:20;97727.22;;;21.48;89.82
64078;BME280;51039;49.696;10.808;2023-09-18T07:47:45;97730.88;;;21.58;89.77
64078;BME280;51039;49.696;10.808;2023-09-18T07:50:10;97727.97;;;21.54;90.46
64078;BME280;51039;49.696;10.808;2023-09-18T07:52:36;97733.19;;;21.45;90.40
64078;BME280;51039;49.696;10.808;2023-09-18T07:55:01;97744.97;;;21.73;89.37
64078;BME280;51039;49.696;10.808;2023-09-18T07:57:27;97751.38;;;21.96;89.26
64078;BME280;51039;49.696;10.808;2023-09-18T07:59:57;97751.25;;;22.72;84.82
64078;BME280;51039;49.696;10.808;2023-09-18T08:02:23;97752.44;;;22.66;84.33
64078;BME280;51039;49.696;10.808;2023-09-18T08:04:48;97754.97;;;22.77;84.01
64078;BME280;51039;49.696;10.808;2023-09-18T08:07:15;97754.25;;;23.18;81.44
64078;BME280;51039;49.696;10.808;2023-09-18T08:09:41;97748.16;;;23.26;79.53
64078;BME280;51039;49.696;10.808;2023-09-18T08:12:06;97759.22;;;22.97;82.48
64078;BME280;51039;49.696;10.808;2023-09-18T08:14:33;97765.97;;;23.27;79.54
64078;BME280;51039;49.696;10.808;2023-09-18T08:17:01;97767.44;;;23.61;77.69
64078;BME280;51039;49.696;10.808;2023-09-18T08:19:29;97775.22;;;24.26;75.13
64078;BME280;51039;49.696;10.808;2023-09-18T08:21:55;97779.03;;;25.73;69.06
64078;BME280;51039;49.696;10.808;2023-09-18T08:24:24;97786.28;;;28.10;59.88
64078;BME280;51039;49.696;10.808;2023-09-18T08:26:50;97786.13;;;28.82;55.42
64078;BME280;51039;49.696;10.808;2023-09-18T08:29:15;97790.22;;;29.59;53.09
64078;BME280;51039;49.696;10.808;2023-09-18T08:31:41;97782.75;;;28.97;54.07
64078;BME280;51039;49.696;10.808;2023-09-18T08:34:06;97776.19;;;28.98;54.44
64078;BME280;51039;49.696;10.808;2023-09-18T08:36:31;97770.91;;;30.17;51.60
64078;BME280;51039;49.696;10.808;2023-09-18T08:38:57;97769.59;;;28.54;55.15
64078;BME280;51039;49.696;10.808;2023-09-18T08:41:23;97777.22;;;28.39;56.56
64078;BME280;51039;49.696;10.808;2023-09-18T08:43:52;97781.44;;;28.37;57.42
64078;BME280;51039;49.696;10.808;2023-09-18T08:46:20;97794.38;;;28.19;57.01
64078;BME280;51039;49.696;10.808;2023-09-18T08:48:46;97784.41;;;28.23;55.79
64078;BME280;51039;49.696;10.808;2023-09-18T08:51:13;97798.63;;;29.29;53.95
64078;BME280;51039;49.696;10.808;2023-09-18T08:53:39;97791.56;;;30.99;48.67
64078;BME280;51039;49.696;10.808;2023-09-18T08:56:04;97788.50;;;32.38;46.06
64078;BME280;51039;49.696;10.808;2023-09-18T08:58:33;97793.69;;;33.29;43.28
64078;BME280;51039;49.696;10.808;2023-09-18T09:01:04;97800.34;;;31.72;45.95
64078;BME280;51039;49.696;10.808;2023-09-18T09:03:31;97787.31;;;30.73;48.26
64078;BME280;51039;49.696;10.808;2023-09-18T09:05:56;97787.31;;;30.17;49.59
64078;BME280;51039;49.696;10.808;2023-09-18T09:08:26;97781.22;;;29.21;50.92
64078;BME280;51039;49.696;10.808;2023-09-18T09:10:52;97783.03;;;28.17;54.69
64078;BME280;51039;49.696;10.808;2023-09-18T09:13:18;97774.25;;;28.32;52.22
64078;BME280;51039;49.696;10.808;2023-09-18T09:15:44;97775.72;;;28.30;52.15
64078;BME280;51039;49.696;10.808;2023-09-18T09:18:15;97769.97;;;28.44;52.60
64078;BME280;51039;49.696;10.808;2023-09-18T09:20:41;97762.94;;;28.43;52.51
64078;BME280;51039;49.696;10.808;2023-09-18T09:23:17;97765.63;;;28.30;52.66
64078;BME280;51039;49.696;10.808;2023-09-18T09:25:42;97760.63;;;28.32;52.78
64078;BME280;51039;49.696;10.808;2023-09-18T09:28:07;97753.19;;;28.75;52.42
64078;BME280;51039;49.696;10.808;2023-09-18T09:30:35;97748.47;;;29.83;47.42
64078;BME280;51039;49.696;10.808;2023-09-18T09:33:02;97743.97;;;30.43;46.46
64078;BME280;51039;49.696;10.808;2023-09-18T09:35:30;97742.53;;;30.78;44.81
64078;BME280;51039;49.696;10.808;2023-09-18T09:38:06;97737.78;;;30.46;45.82
64078;BME280;51039;49.696;10.808;2023-09-18T09:40:33;97735.72;;;29.87;46.24
64078;BME280;51039;49.696;10.808;2023-09-18T09:43:00;97737.38;;;29.26;46.93
64078;BME280;51039;49.696;10.808;2023-09-18T09:45:28;97723.03;;;29.05;47.39
64078;BME280;51039;49.696;10.808;2023-09-18T09:47:55;97736.72;;;28.38;49.54
64078;BME280;51039;49.696;10.808;2023-09-18T09:50:21;97736.78;;;27.66;51.19
64078;BME280;51039;49.696;10.808;2023-09-18T09:52:47;97731.53;;;27.82;51.69
64078;BME280;51039;49.696;10.808;2023-09-18T09:55:28;97731.03;;;28.64;49.61
64078;BME280;51039;49.696;10.808;2023-09-18T09:58:00;97732.56;;;29.11;47.34
64078;BME280;51039;49.696;10.808;2023-09-18T10:00:33;97738.50;;;29.50;46.61
64078;BME280;51039;49.696;10.808;2023-09-18T10:03:11;97758.03;;;29.52;47.93
64078;BME280;51039;49.696;10.808;2023-09-18T10:05:38;97751.69;;;30.13;46.92
64078;BME280;51039;49.696;10.808;2023-09-18T10:08:09;97749.72;;;30.26;44.93
64078;BME280;51039;49.696;10.808;2023-09-18T10:10:37;97758.97;;;29.44;44.27
64078;BME280;51039;49.696;10.808;2023-09-18T10:13:07;97763.81;;;28.34;46.74
64078;BME280;51039;49.696;10.808;2023-09-18T10:15:35;97765.66;;;27.79;48.25
64078;BME280;51039;49.696;10.808;2023-09-18T10:18:10;97771.03;;;27.97;48.56
64078;BME280;51039;49.696;10.808;2023-09-18T10:20:51;97781.50;;;28.07;47.57
64078;BME280;51039;49.696;10.808;2023-09-18T10:24:02;97785.78;;;28.50;46.20
64078;BME280;51039;49.696;10.808;2023-09-18T10:26:22;97781.47;;;28.49;46.17
64078;BME280;51039;49.696;10.808;2023-09-18T10:28:55;97790.31;;;28.04;45.86
64078;BME280;51039;49.696;10.808;2023-09-18T10:31:28;97794.00;;;27.78;48.04
64078;BME280;51039;49.696;10.808;2023-09-18T10:33:54;97785.84;;;27.10;49.15
64078;BME280;51039;49.696;10.808;2023-09-18T10:36:21;97803.03;;;26.76;50.34
64078;BME280;51039;49.696;10.808;2023-09-18T10:38:48;97801.13;;;26.33;50.73
64078;BME280;51039;49.696;10.808;2023-09-18T10:41:16;97811.84;;;26.29;51.39
64078;BME280;51039;49.696;10.808;2023-09-18T10:43:45;97808.00;;;26.13;51.53
64078;BME280;51039;49.696;10.808;2023-09-18T10:46:12;97811.97;;;25.98;52.49
64078;BME280;51039;49.696;10.808;2023-09-18T10:48:38;97809.91;;;26.12;52.12
64078;BME280;51039;49.696;10.808;2023-09-18T10:51:07;97815.63;;;26.02;52.40
64078;BME280;51039;49.696;10.808;2023-09-18T10:53:33;97823.88;;;25.88;53.14
64078;BME280;51039;49.696;10.808;2023-09-18T10:55:59;97824.91;;;26.18;53.72
64078;BME280;51039;49.696;10.808;2023-09-18T10:58:26;97814.13;;;25.78;53.50
64078;BME280;51039;49.696;10.808;2023-09-18T11:00:53;97824.69;;;25.89;53.65
64078;BME280;51039;49.696;10.808;2023-09-18T11:03:21;97827.69;;;25.70;53.60
64078;BME280;51039;49.696;10.808;2023-09-18T11:05:48;97825.50;;;25.40;54.33
64078;BME280;51039;49.696;10.808;2023-09-18T11:08:30;97831.00;;;25.58;53.85
64078;BME280;51039;49.696;10.808;2023-09-18T11:13:43;97836.06;;;25.19;56.41
64078;BME280;51039;49.696;10.808;2023-09-18T11:18:50;97844.34;;;24.10;62.09
64078;BME280;51039;49.696;10.808;2023-09-18T11:21:23;97837.66;;;23.80;65.21
64078;BME280;51039;49.696;10.808;2023-09-18T11:23:57;97848.53;;;23.75;67.97
64078;BME280;51039;49.696;10.808;2023-09-18T11:26:24;97844.06;;;23.42;68.89
64078;BME280;51039;49.696;10.808;2023-09-18T11:28:54;97849.84;;;23.36;66.65
64078;BME280;51039;49.696;10.808;2023-09-18T11:31:20;97846.50;;;23.11;65.59
64078;BME280;51039;49.696;10.808;2023-09-18T11:33:47;97856.50;;;23.10;66.36
64078;BME280;51039;49.696;10.808;2023-09-18T11:36:13;97865.84;;;22.99;67.28
64078;BME280;51039;49.696;10.808;2023-09-18T11:38:55;97877.84;;;22.93;67.82
64078;BME280;51039;49.696;10.808;2023-09-18T11:41:30;97881.94;;;22.90;68.92
64078;BME280;51039;49.696;10.808;2023-09-18T11:46:32;97889.66;;;22.97;72.12
64078;BME280;51039;49.696;10.808;2023-09-18T11:48:58;97897.31;;;22.90;75.25
64078;BME280;51039;49.696;10.808;2023-09-18T11:51:24;97922.31;;;22.63;80.70
64078;BME280;51039;49.696;10.808;2023-09-18T11:53:54;97926.81;;;22.05;87.66
64078;BME280;51039;49.696;10.808;2023-09-18T11:56:21;97925.28;;;21.46;91.14
64078;BME280;51039;49.696;10.808;2023-09-18T11:58:47;97926.31;;;20.86;97.10
64078;BME280;51039;49.696;10.808;2023-09-18T12:01:13;97919.50;;;20.59;100.00
64078;BME280;51039;49.696;10.808;2023-09-18T12:03:40;97917.59;;;20.55;100.00
64078;BME280;51039;49.696;10.808;2023-09-18T12:06:05;97917.88;;;20.53;100.00
64078;BME280;51039;49.696;10.808;2023-09-18T12:08:31;97934.53;;;20.61;100.00
64078;BME280;51039;49.696;10.808;2023-09-18T12:10:57;97942.00;;;20.74;100.00
64078;BME280;51039;49.696;10.808;2023-09-18T12:13:26;97949.03;;;20.70;100.00
64078;BME280;51039;49.696;10.808;2023-09-18T12:15:56;97939.03;;;20.75;100.00
64078;BME280;51039;49.696;10.808;2023-09-18T12:18:44;97945.69;;;20.88;100.00
64078;BME280;51039;49.696;10.808;2023-09-18T12:21:13;97930.97;;;21.10;100.00
64078;BME280;51039;49.696;10.808;2023-09-18T12:23:41;97931.25;;;21.08;100.00
64078;BME280;51039;49.696;10.808;2023-09-18T12:26:10;97925.84;;;21.13;100.00
64078;BME280;51039;49.696;10.808;2023-09-18T12:28:38;97927.63;;;21.23;100.00
64078;BME280;51039;49.696;10.808;2023-09-18T12:31:04;97920.34;;;21.24;100.00
64078;BME280;51039;49.696;10.808;2023-09-18T12:33:33;97911.75;;;21.22;98.17
64078;BME280;51039;49.696;10.808;2023-09-18T12:36:00;97918.28;;;21.15;99.54
64078;BME280;51039;49.696;10.808;2023-09-18T12:38:25;97914.25;;;21.13;100.00
64078;BME280;51039;49.696;10.808;2023-09-18T12:40:53;97918.41;;;21.00;100.00
64078;BME280;51039;49.696;10.808;2023-09-18T12:43:19;97916.84;;;20.94;100.00
64078;BME280;51039;49.696;10.808;2023-09-18T12:45:47;97906.50;;;20.72;100.00
64078;BME280;51039;49.696;10.808;2023-09-18T12:48:14;97908.06;;;20.78;100.00